Eureka, California
Current Conditions -  °F | °C
As of 4:53 PM on Tuesday 21 Oct 2014 (Local Time) from KACV Reporting Station
Few Clouds Few Clouds  
Wind Chill: 62°   Ceiling: Unl
Heat Index: 62°   Visibility: 10mi
Dew Point: 51°   Wind: 7mph
Humidity: 67%   Direction: 180°S
Pressure: 30.05"   Gusts: NA
Location:  40.8°N, 124.15°W
Report Text: KACV 212353Z AUTO 18006KT 10SM FEW120 17/11 A3005 RMK AO2 SLP181 T01670106 10183 20161 58008
Loading
Personal Weather Stations






























Interactive Weather Map New forecast layout! Learn more

10-Day Weather Forecast

Advertisements
Track Severe Weather on mobile